sensor_id;sensor_type;location;lat;lon;timestamp;P1;durP1;ratioP1;P2;durP2;ratioP2
50066;SDS011;35952;52.524;13.340;2023-06-24T00:00:25;18.43;;;15.03;;
50066;SDS011;35952;52.524;13.340;2023-06-24T00:02:50;18.20;;;16.40;;
50066;SDS011;35952;52.524;13.340;2023-06-24T00:05:18;19.47;;;16.63;;
50066;SDS011;35952;52.524;13.340;2023-06-24T00:07:44;17.73;;;15.93;;
50066;SDS011;35952;52.524;13.340;2023-06-24T00:10:10;18.40;;;16.40;;
50066;SDS011;35952;52.524;13.340;2023-06-24T00:12:37;17.60;;;15.70;;
50066;SDS011;35952;52.524;13.340;2023-06-24T00:15:04;17.60;;;15.73;;
50066;SDS011;35952;52.524;13.340;2023-06-24T00:17:30;18.40;;;16.57;;
50066;SDS011;35952;52.524;13.340;2023-06-24T00:19:56;18.80;;;15.27;;
50066;SDS011;35952;52.524;13.340;2023-06-24T00:22:21;21.27;;;17.60;;
50066;SDS011;35952;52.524;13.340;2023-06-24T00:24:47;19.63;;;17.63;;
50066;SDS011;35952;52.524;13.340;2023-06-24T00:27:12;20.27;;;18.27;;
50066;SDS011;35952;52.524;13.340;2023-06-24T00:29:38;21.00;;;18.90;;
50066;SDS011;35952;52.524;13.340;2023-06-24T00:32:04;22.20;;;19.87;;
50066;SDS011;35952;52.524;13.340;2023-06-24T00:34:30;23.13;;;20.73;;
50066;SDS011;35952;52.524;13.340;2023-06-24T00:36:55;24.30;;;20.90;;
50066;SDS011;35952;52.524;13.340;2023-06-24T00:39:21;26.13;;;23.30;;
50066;SDS011;35952;52.524;13.340;2023-06-24T00:41:47;24.17;;;21.77;;
50066;SDS011;35952;52.524;13.340;2023-06-24T00:44:13;25.63;;;22.07;;
50066;SDS011;35952;52.524;13.340;2023-06-24T00:46:39;24.23;;;21.63;;
50066;SDS011;35952;52.524;13.340;2023-06-24T00:49:05;24.50;;;21.93;;
50066;SDS011;35952;52.524;13.340;2023-06-24T00:51:30;26.37;;;21.30;;
50066;SDS011;35952;52.524;13.340;2023-06-24T00:53:58;23.53;;;21.13;;
50066;SDS011;35952;52.524;13.340;2023-06-24T00:56:25;22.83;;;20.47;;
50066;SDS011;35952;52.524;13.340;2023-06-24T00:58:55;22.70;;;20.40;;
50066;SDS011;35952;52.524;13.340;2023-06-24T01:01:22;23.07;;;20.77;;
50066;SDS011;35952;52.524;13.340;2023-06-24T01:03:48;23.50;;;21.10;;
50066;SDS011;35952;52.524;13.340;2023-06-24T01:06:14;24.53;;;21.00;;
50066;SDS011;35952;52.524;13.340;2023-06-24T01:08:40;23.43;;;20.87;;
50066;SDS011;35952;52.524;13.340;2023-06-24T01:11:05;24.07;;;20.90;;
50066;SDS011;35952;52.524;13.340;2023-06-24T01:13:31;26.90;;;23.03;;
50066;SDS011;35952;52.524;13.340;2023-06-24T01:15:58;24.83;;;22.30;;
50066;SDS011;35952;52.524;13.340;2023-06-24T01:18:29;23.27;;;20.87;;
50066;SDS011;35952;52.524;13.340;2023-06-24T01:26:37;21.03;;;18.93;;
50066;SDS011;35952;52.524;13.340;2023-06-24T01:29:27;21.97;;;19.10;;
50066;SDS011;35952;52.524;13.340;2023-06-24T01:32:19;21.07;;;19.03;;
50066;SDS011;35952;52.524;13.340;2023-06-24T01:34:56;22.93;;;20.47;;
50066;SDS011;35952;52.524;13.340;2023-06-24T01:37:41;21.57;;;19.37;;
50066;SDS011;35952;52.524;13.340;2023-06-24T01:40:15;20.33;;;18.17;;
50066;SDS011;35952;52.524;13.340;2023-06-24T01:42:59;20.10;;;18.03;;
50066;SDS011;35952;52.524;13.340;2023-06-24T01:45:27;20.67;;;18.67;;
50066;SDS011;35952;52.524;13.340;2023-06-24T01:48:15;21.50;;;19.17;;
50066;SDS011;35952;52.524;13.340;2023-06-24T01:51:01;20.40;;;18.30;;
50066;SDS011;35952;52.524;13.340;2023-06-24T01:53:32;22.20;;;20.10;;
50066;SDS011;35952;52.524;13.340;2023-06-24T01:56:01;20.43;;;18.30;;
50066;SDS011;35952;52.524;13.340;2023-06-24T01:58:28;19.27;;;17.43;;
50066;SDS011;35952;52.524;13.340;2023-06-24T02:00:55;20.87;;;17.63;;
50066;SDS011;35952;52.524;13.340;2023-06-24T02:03:22;20.93;;;18.87;;
50066;SDS011;35952;52.524;13.340;2023-06-24T02:05:49;20.90;;;18.67;;
50066;SDS011;35952;52.524;13.340;2023-06-24T02:08:18;21.40;;;18.33;;
50066;SDS011;35952;52.524;13.340;2023-06-24T02:10:46;25.93;;;20.00;;
50066;SDS011;35952;52.524;13.340;2023-06-24T02:13:13;21.97;;;18.87;;
50066;SDS011;35952;52.524;13.340;2023-06-24T02:15:40;26.13;;;20.70;;
50066;SDS011;35952;52.524;13.340;2023-06-24T02:18:07;18.10;;;16.30;;
50066;SDS011;35952;52.524;13.340;2023-06-24T02:20:34;20.03;;;18.03;;
50066;SDS011;35952;52.524;13.340;2023-06-24T02:23:01;17.60;;;15.83;;
50066;SDS011;35952;52.524;13.340;2023-06-24T02:25:29;17.90;;;15.27;;
50066;SDS011;35952;52.524;13.340;2023-06-24T02:27:56;20.63;;;16.40;;
50066;SDS011;35952;52.524;13.340;2023-06-24T02:30:22;22.40;;;16.30;;
50066;SDS011;35952;52.524;13.340;2023-06-24T02:32:50;17.53;;;15.43;;
50066;SDS011;35952;52.524;13.340;2023-06-24T02:35:16;17.63;;;15.80;;
50066;SDS011;35952;52.524;13.340;2023-06-24T02:37:42;16.47;;;14.87;;
50066;SDS011;35952;52.524;13.340;2023-06-24T02:40:08;17.57;;;15.60;;
50066;SDS011;35952;52.524;13.340;2023-06-24T02:42:35;18.50;;;14.70;;
50066;SDS011;35952;52.524;13.340;2023-06-24T02:45:01;15.83;;;14.23;;
50066;SDS011;35952;52.524;13.340;2023-06-24T02:47:28;17.33;;;15.43;;
50066;SDS011;35952;52.524;13.340;2023-06-24T02:49:54;16.70;;;15.00;;
50066;SDS011;35952;52.524;13.340;2023-06-24T02:52:22;15.67;;;14.00;;
50066;SDS011;35952;52.524;13.340;2023-06-24T02:54:48;15.90;;;14.40;;
50066;SDS011;35952;52.524;13.340;2023-06-24T02:57:14;15.40;;;13.80;;
50066;SDS011;35952;52.524;13.340;2023-06-24T02:59:40;15.60;;;14.10;;
50066;SDS011;35952;52.524;13.340;2023-06-24T03:02:06;14.47;;;13.03;;
50066;SDS011;35952;52.524;13.340;2023-06-24T03:04:32;16.63;;;15.13;;
50066;SDS011;35952;52.524;13.340;2023-06-24T03:06:59;15.93;;;13.50;;
50066;SDS011;35952;52.524;13.340;2023-06-24T03:09:26;16.10;;;14.40;;
50066;SDS011;35952;52.524;13.340;2023-06-24T03:11:52;16.23;;;14.73;;
50066;SDS011;35952;52.524;13.340;2023-06-24T03:14:18;15.90;;;14.20;;
50066;SDS011;35952;52.524;13.340;2023-06-24T03:16:44;17.03;;;15.23;;
50066;SDS011;35952;52.524;13.340;2023-06-24T03:19:09;15.97;;;13.67;;
50066;SDS011;35952;52.524;13.340;2023-06-24T03:21:35;15.80;;;14.10;;
50066;SDS011;35952;52.524;13.340;2023-06-24T03:24:00;19.37;;;14.90;;
50066;SDS011;35952;52.524;13.340;2023-06-24T03:26:33;17.17;;;13.43;;
50066;SDS011;35952;52.524;13.340;2023-06-24T03:29:00;15.93;;;14.33;;
50066;SDS011;35952;52.524;13.340;2023-06-24T03:31:26;18.43;;;15.10;;
50066;SDS011;35952;52.524;13.340;2023-06-24T03:33:51;18.27;;;15.13;;
50066;SDS011;35952;52.524;13.340;2023-06-24T03:36:16;17.40;;;15.70;;
50066;SDS011;35952;52.524;13.340;2023-06-24T03:38:42;17.70;;;14.43;;
50066;SDS011;35952;52.524;13.340;2023-06-24T03:41:07;15.77;;;14.17;;
50066;SDS011;35952;52.524;13.340;2023-06-24T03:43:33;15.60;;;13.40;;
50066;SDS011;35952;52.524;13.340;2023-06-24T03:45:58;15.97;;;14.30;;
50066;SDS011;35952;52.524;13.340;2023-06-24T03:48:25;16.00;;;14.43;;
50066;SDS011;35952;52.524;13.340;2023-06-24T03:50:50;15.33;;;13.80;;
50066;SDS011;35952;52.524;13.340;2023-06-24T03:53:16;15.30;;;13.70;;
50066;SDS011;35952;52.524;13.340;2023-06-24T03:55:41;14.10;;;12.67;;
50066;SDS011;35952;52.524;13.340;2023-06-24T03:58:07;15.93;;;14.20;;
50066;SDS011;35952;52.524;13.340;2023-06-24T04:00:33;16.20;;;14.60;;
50066;SDS011;35952;52.524;13.340;2023-06-24T04:02:58;15.60;;;14.03;;
50066;SDS011;35952;52.524;13.340;2023-06-24T04:05:27;15.03;;;13.50;;
50066;SDS011;35952;52.524;13.340;2023-06-24T04:07:52;16.80;;;14.33;;
50066;SDS011;35952;52.524;13.340;2023-06-24T04:10:18;17.03;;;14.30;;
50066;SDS011;35952;52.524;13.340;2023-06-24T04:12:44;17.20;;;12.90;;
50066;SDS011;35952;52.524;13.340;2023-06-24T04:15:10;15.00;;;13.00;;
50066;SDS011;35952;52.524;13.340;2023-06-24T04:17:36;14.20;;;12.80;;
50066;SDS011;35952;52.524;13.340;2023-06-24T04:20:01;15.10;;;13.17;;
50066;SDS011;35952;52.524;13.340;2023-06-24T04:22:33;14.30;;;12.80;;
50066;SDS011;35952;52.524;13.340;2023-06-24T04:24:59;16.37;;;13.40;;
50066;SDS011;35952;52.524;13.340;2023-06-24T04:27:25;14.43;;;12.90;;
50066;SDS011;35952;52.524;13.340;2023-06-24T04:29:51;16.27;;;12.63;;
50066;SDS011;35952;52.524;13.340;2023-06-24T04:32:16;16.03;;;12.90;;
50066;SDS011;35952;52.524;13.340;2023-06-24T04:34:42;15.73;;;12.60;;
50066;SDS011;35952;52.524;13.340;2023-06-24T04:37:07;15.33;;;13.63;;
50066;SDS011;35952;52.524;13.340;2023-06-24T04:39:33;14.57;;;12.83;;
50066;SDS011;35952;52.524;13.340;2023-06-24T04:41:58;14.03;;;11.63;;
50066;SDS011;35952;52.524;13.340;2023-06-24T04:44:23;16.93;;;12.23;;
50066;SDS011;35952;52.524;13.340;2023-06-24T04:46:50;15.57;;;14.03;;
50066;SDS011;35952;52.524;13.340;2023-06-24T04:49:17;15.50;;;12.10;;
50066;SDS011;35952;52.524;13.340;2023-06-24T04:51:43;15.30;;;13.80;;
50066;SDS011;35952;52.524;13.340;2023-06-24T04:54:08;16.57;;;14.97;;
50066;SDS011;35952;52.524;13.340;2023-06-24T04:56:34;13.90;;;12.50;;
50066;SDS011;35952;52.524;13.340;2023-06-24T04:59:00;14.83;;;12.80;;
50066;SDS011;35952;52.524;13.340;2023-06-24T05:01:25;17.87;;;13.40;;
50066;SDS011;35952;52.524;13.340;2023-06-24T05:03:51;14.90;;;13.30;;
50066;SDS011;35952;52.524;13.340;2023-06-24T05:06:16;15.80;;;12.70;;
50066;SDS011;35952;52.524;13.340;2023-06-24T05:08:42;16.93;;;13.50;;
50066;SDS011;35952;52.524;13.340;2023-06-24T05:11:07;17.03;;;12.87;;
50066;SDS011;35952;52.524;13.340;2023-06-24T05:13:33;17.50;;;12.97;;
50066;SDS011;35952;52.524;13.340;2023-06-24T05:15:58;16.87;;;11.87;;
50066;SDS011;35952;52.524;13.340;2023-06-24T05:18:24;17.30;;;12.70;;
50066;SDS011;35952;52.524;13.340;2023-06-24T05:20:49;15.50;;;13.87;;
50066;SDS011;35952;52.524;13.340;2023-06-24T05:23:15;15.20;;;11.40;;
50066;SDS011;35952;52.524;13.340;2023-06-24T05:25:40;14.60;;;13.10;;
50066;SDS011;35952;52.524;13.340;2023-06-24T05:28:06;15.60;;;12.93;;
50066;SDS011;35952;52.524;13.340;2023-06-24T05:30:31;17.60;;;12.43;;
50066;SDS011;35952;52.524;13.340;2023-06-24T05:32:57;13.50;;;12.00;;
50066;SDS011;35952;52.524;13.340;2023-06-24T05:35:22;15.00;;;12.70;;
50066;SDS011;35952;52.524;13.340;2023-06-24T05:37:48;12.47;;;11.13;;
50066;SDS011;35952;52.524;13.340;2023-06-24T05:40:13;14.00;;;12.60;;
50066;SDS011;35952;52.524;13.340;2023-06-24T05:42:39;12.53;;;11.23;;
50066;SDS011;35952;52.524;13.340;2023-06-24T05:45:05;13.83;;;12.30;;
50066;SDS011;35952;52.524;13.340;2023-06-24T05:47:31;13.90;;;12.40;;
50066;SDS011;35952;52.524;13.340;2023-06-24T05:50:07;11.87;;;10.80;;
50066;SDS011;35952;52.524;13.340;2023-06-24T05:52:40;16.50;;;11.40;;
50066;SDS011;35952;52.524;13.340;2023-06-24T05:55:06;13.97;;;11.73;;
50066;SDS011;35952;52.524;13.340;2023-06-24T05:57:32;12.57;;;11.00;;
50066;SDS011;35952;52.524;13.340;2023-06-24T05:59:57;13.03;;;11.40;;
50066;SDS011;35952;52.524;13.340;2023-06-24T06:02:23;14.27;;;11.63;;
50066;SDS011;35952;52.524;13.340;2023-06-24T06:04:49;10.83;;;9.73;;
50066;SDS011;35952;52.524;13.340;2023-06-24T06:07:15;12.77;;;11.43;;
50066;SDS011;35952;52.524;13.340;2023-06-24T06:09:41;13.40;;;10.50;;
50066;SDS011;35952;52.524;13.340;2023-06-24T06:12:06;10.80;;;9.80;;
50066;SDS011;35952;52.524;13.340;2023-06-24T06:14:33;12.07;;;9.73;;
50066;SDS011;35952;52.524;13.340;2023-06-24T06:16:58;10.60;;;9.50;;
50066;SDS011;35952;52.524;13.340;2023-06-24T06:19:24;10.43;;;9.30;;
50066;SDS011;35952;52.524;13.340;2023-06-24T06:21:49;13.87;;;10.80;;
50066;SDS011;35952;52.524;13.340;2023-06-24T06:24:16;9.87;;;8.97;;
50066;SDS011;35952;52.524;13.340;2023-06-24T06:26:42;11.97;;;9.27;;
50066;SDS011;35952;52.524;13.340;2023-06-24T06:29:08;9.60;;;8.80;;
50066;SDS011;35952;52.524;13.340;2023-06-24T06:31:34;13.10;;;10.07;;
50066;SDS011;35952;52.524;13.340;2023-06-24T06:34:00;10.40;;;8.80;;
50066;SDS011;35952;52.524;13.340;2023-06-24T06:36:26;10.27;;;8.70;;
50066;SDS011;35952;52.524;13.340;2023-06-24T06:38:52;10.53;;;9.53;;
50066;SDS011;35952;52.524;13.340;2023-06-24T06:41:18;10.77;;;9.60;;
50066;SDS011;35952;52.524;13.340;2023-06-24T06:43:52;11.50;;;10.03;;
50066;SDS011;35952;52.524;13.340;2023-06-24T06:46:19;13.00;;;8.90;;
50066;SDS011;35952;52.524;13.340;2023-06-24T06:48:45;8.67;;;7.97;;
50066;SDS011;35952;52.524;13.340;2023-06-24T06:51:11;9.43;;;8.47;;
50066;SDS011;35952;52.524;13.340;2023-06-24T06:53:37;9.73;;;7.97;;
50066;SDS011;35952;52.524;13.340;2023-06-24T06:56:03;10.57;;;9.40;;
50066;SDS011;35952;52.524;13.340;2023-06-24T06:58:29;8.93;;;8.03;;
50066;SDS011;35952;52.524;13.340;2023-06-24T07:00:54;8.70;;;7.90;;
50066;SDS011;35952;52.524;13.340;2023-06-24T07:03:19;8.83;;;8.13;;
50066;SDS011;35952;52.524;13.340;2023-06-24T07:05:45;8.80;;;8.00;;
50066;SDS011;35952;52.524;13.340;2023-06-24T07:08:11;9.07;;;8.17;;
50066;SDS011;35952;52.524;13.340;2023-06-24T07:10:37;8.73;;;7.40;;
50066;SDS011;35952;52.524;13.340;2023-06-24T07:13:02;10.73;;;8.83;;
50066;SDS011;35952;52.524;13.340;2023-06-24T07:15:28;8.60;;;7.80;;
50066;SDS011;35952;52.524;13.340;2023-06-24T07:17:53;8.13;;;7.33;;
50066;SDS011;35952;52.524;13.340;2023-06-24T07:20:19;10.70;;;7.90;;
50066;SDS011;35952;52.524;13.340;2023-06-24T07:22:46;8.30;;;7.20;;
50066;SDS011;35952;52.524;13.340;2023-06-24T07:25:12;8.23;;;7.53;;
50066;SDS011;35952;52.524;13.340;2023-06-24T07:27:37;7.50;;;6.70;;
50066;SDS011;35952;52.524;13.340;2023-06-24T07:30:03;10.40;;;9.50;;
50066;SDS011;35952;52.524;13.340;2023-06-24T07:32:30;14.43;;;8.43;;
50066;SDS011;35952;52.524;13.340;2023-06-24T07:34:55;8.67;;;7.87;;
50066;SDS011;35952;52.524;13.340;2023-06-24T07:37:21;8.50;;;7.80;;
50066;SDS011;35952;52.524;13.340;2023-06-24T07:39:47;9.17;;;7.30;;
50066;SDS011;35952;52.524;13.340;2023-06-24T07:42:12;8.73;;;7.83;;
50066;SDS011;35952;52.524;13.340;2023-06-24T07:44:43;8.80;;;7.90;;
50066;SDS011;35952;52.524;13.340;2023-06-24T07:47:09;8.60;;;7.70;;
50066;SDS011;35952;52.524;13.340;2023-06-24T07:49:35;8.87;;;8.07;;
50066;SDS011;35952;52.524;13.340;2023-06-24T07:52:03;9.03;;;8.10;;
50066;SDS011;35952;52.524;13.340;2023-06-24T07:54:29;9.17;;;8.27;;
50066;SDS011;35952;52.524;13.340;2023-06-24T07:56:55;9.03;;;8.13;;
50066;SDS011;35952;52.524;13.340;2023-06-24T07:59:21;9.87;;;8.90;;
50066;SDS011;35952;52.524;13.340;2023-06-24T08:01:46;8.37;;;7.50;;
50066;SDS011;35952;52.524;13.340;2023-06-24T08:04:12;8.23;;;7.43;;
50066;SDS011;35952;52.524;13.340;2023-06-24T08:06:40;8.37;;;7.60;;
50066;SDS011;35952;52.524;13.340;2023-06-24T08:09:06;9.00;;;8.10;;
50066;SDS011;35952;52.524;13.340;2023-06-24T08:11:31;11.80;;;8.07;;
50066;SDS011;35952;52.524;13.340;2023-06-24T08:13:59;8.67;;;7.87;;
50066;SDS011;35952;52.524;13.340;2023-06-24T08:16:26;7.80;;;7.10;;
50066;SDS011;35952;52.524;13.340;2023-06-24T08:18:52;8.10;;;7.30;;
50066;SDS011;35952;52.524;13.340;2023-06-24T08:21:18;10.83;;;8.40;;
50066;SDS011;35952;52.524;13.340;2023-06-24T08:23:44;9.17;;;8.37;;
50066;SDS011;35952;52.524;13.340;2023-06-24T08:26:09;8.67;;;7.67;;
50066;SDS011;35952;52.524;13.340;2023-06-24T08:28:35;10.27;;;7.50;;
50066;SDS011;35952;52.524;13.340;2023-06-24T08:31:01;12.50;;;7.53;;
50066;SDS011;35952;52.524;13.340;2023-06-24T08:33:26;7.43;;;6.83;;
50066;SDS011;35952;52.524;13.340;2023-06-24T08:35:52;7.27;;;6.67;;
50066;SDS011;35952;52.524;13.340;2023-06-24T08:38:17;8.03;;;7.33;;
50066;SDS011;35952;52.524;13.340;2023-06-24T08:40:43;10.20;;;7.70;;
50066;SDS011;35952;52.524;13.340;2023-06-24T08:43:11;9.73;;;8.20;;
50066;SDS011;35952;52.524;13.340;2023-06-24T08:45:36;7.93;;;7.10;;
50066;SDS011;35952;52.524;13.340;2023-06-24T08:48:02;8.23;;;7.43;;
50066;SDS011;35952;52.524;13.340;2023-06-24T08:50:30;8.23;;;7.53;;
50066;SDS011;35952;52.524;13.340;2023-06-24T08:52:59;8.07;;;7.10;;
50066;SDS011;35952;52.524;13.340;2023-06-24T08:55:28;8.13;;;7.43;;
50066;SDS011;35952;52.524;13.340;2023-06-24T08:57:57;7.80;;;7.00;;
50066;SDS011;35952;52.524;13.340;2023-06-24T09:00:23;11.03;;;7.47;;
50066;SDS011;35952;52.524;13.340;2023-06-24T09:02:49;7.93;;;7.10;;
50066;SDS011;35952;52.524;13.340;2023-06-24T09:05:15;7.53;;;6.43;;
50066;SDS011;35952;52.524;13.340;2023-06-24T09:07:40;7.50;;;6.90;;
50066;SDS011;35952;52.524;13.340;2023-06-24T09:10:06;8.03;;;6.87;;
50066;SDS011;35952;52.524;13.340;2023-06-24T09:12:32;7.37;;;6.73;;
50066;SDS011;35952;52.524;13.340;2023-06-24T09:14:58;9.87;;;7.97;;
50066;SDS011;35952;52.524;13.340;2023-06-24T09:17:24;9.13;;;7.33;;
50066;SDS011;35952;52.524;13.340;2023-06-24T09:19:50;11.50;;;6.87;;
50066;SDS011;35952;52.524;13.340;2023-06-24T09:22:16;8.80;;;6.73;;
50066;SDS011;35952;52.524;13.340;2023-06-24T09:24:43;7.33;;;6.63;;
50066;SDS011;35952;52.524;13.340;2023-06-24T09:27:13;6.97;;;6.47;;
50066;SDS011;35952;52.524;13.340;2023-06-24T09:29:40;8.83;;;7.30;;
50066;SDS011;35952;52.524;13.340;2023-06-24T09:32:06;8.03;;;6.97;;
50066;SDS011;35952;52.524;13.340;2023-06-24T09:34:32;9.33;;;6.80;;
50066;SDS011;35952;52.524;13.340;2023-06-24T09:36:59;6.27;;;5.77;;
50066;SDS011;35952;52.524;13.340;2023-06-24T09:39:26;6.77;;;6.00;;
50066;SDS011;35952;52.524;13.340;2023-06-24T09:41:56;5.70;;;5.30;;
50066;SDS011;35952;52.524;13.340;2023-06-24T09:44:22;5.63;;;5.20;;
50066;SDS011;35952;52.524;13.340;2023-06-24T09:46:48;5.80;;;5.30;;
50066;SDS011;35952;52.524;13.340;2023-06-24T09:49:13;10.40;;;5.77;;
50066;SDS011;35952;52.524;13.340;2023-06-24T09:51:40;8.07;;;6.10;;
50066;SDS011;35952;52.524;13.340;2023-06-24T09:54:09;6.97;;;6.37;;
50066;SDS011;35952;52.524;13.340;2023-06-24T09:56:37;8.57;;;7.87;;
50066;SDS011;35952;52.524;13.340;2023-06-24T09:59:04;7.43;;;5.90;;
50066;SDS011;35952;52.524;13.340;2023-06-24T10:01:35;7.53;;;5.30;;
50066;SDS011;35952;52.524;13.340;2023-06-24T10:04:04;6.07;;;5.57;;
50066;SDS011;35952;52.524;13.340;2023-06-24T10:06:31;6.00;;;5.50;;
50066;SDS011;35952;52.524;13.340;2023-06-24T10:08:58;5.90;;;5.40;;
50066;SDS011;35952;52.524;13.340;2023-06-24T10:11:24;5.70;;;5.20;;
50066;SDS011;35952;52.524;13.340;2023-06-24T10:13:51;5.47;;;5.07;;
50066;SDS011;35952;52.524;13.340;2023-06-24T10:16:17;9.17;;;5.10;;
50066;SDS011;35952;52.524;13.340;2023-06-24T10:18:43;6.73;;;5.30;;
50066;SDS011;35952;52.524;13.340;2023-06-24T10:21:10;6.27;;;5.77;;
50066;SDS011;35952;52.524;13.340;2023-06-24T10:23:40;5.80;;;5.20;;
50066;SDS011;35952;52.524;13.340;2023-06-24T10:26:07;5.73;;;5.00;;
50066;SDS011;35952;52.524;13.340;2023-06-24T10:29:14;5.87;;;5.30;;
50066;SDS011;35952;52.524;13.340;2023-06-24T10:34:22;6.97;;;5.37;;
50066;SDS011;35952;52.524;13.340;2023-06-24T10:36:55;10.27;;;6.00;;
50066;SDS011;35952;52.524;13.340;2023-06-24T10:39:48;8.03;;;6.00;;
50066;SDS011;35952;52.524;13.340;2023-06-24T10:44:51;7.20;;;6.50;;
50066;SDS011;35952;52.524;13.340;2023-06-24T10:47:17;6.10;;;5.60;;
50066;SDS011;35952;52.524;13.340;2023-06-24T10:49:43;6.73;;;6.13;;
50066;SDS011;35952;52.524;13.340;2023-06-24T10:52:12;5.93;;;5.43;;
50066;SDS011;35952;52.524;13.340;2023-06-24T10:54:38;6.23;;;5.73;;
50066;SDS011;35952;52.524;13.340;2023-06-24T10:57:04;5.47;;;4.97;;
50066;SDS011;35952;52.524;13.340;2023-06-24T10:59:49;6.70;;;6.10;;
50066;SDS011;35952;52.524;13.340;2023-06-24T11:02:15;6.93;;;5.93;;
50066;SDS011;35952;52.524;13.340;2023-06-24T11:04:45;5.87;;;4.70;;
50066;SDS011;35952;52.524;13.340;2023-06-24T11:07:12;8.03;;;6.00;;
50066;SDS011;35952;52.524;13.340;2023-06-24T11:09:38;5.87;;;5.47;;
50066;SDS011;35952;52.524;13.340;2023-06-24T11:12:05;5.80;;;5.23;;
50066;SDS011;35952;52.524;13.340;2023-06-24T11:14:33;6.53;;;5.97;;
50066;SDS011;35952;52.524;13.340;2023-06-24T11:17:03;6.60;;;6.00;;
50066;SDS011;35952;52.524;13.340;2023-06-24T11:19:29;6.50;;;5.90;;
50066;SDS011;35952;52.524;13.340;2023-06-24T11:21:59;7.70;;;7.07;;
50066;SDS011;35952;52.524;13.340;2023-06-24T11:24:25;7.70;;;6.30;;
50066;SDS011;35952;52.524;13.340;2023-06-24T11:26:52;13.00;;;6.63;;
50066;SDS011;35952;52.524;13.340;2023-06-24T11:29:17;6.43;;;5.83;;
50066;SDS011;35952;52.524;13.340;2023-06-24T11:31:44;6.20;;;5.70;;
50066;SDS011;35952;52.524;13.340;2023-06-24T11:34:10;6.27;;;5.70;;
50066;SDS011;35952;52.524;13.340;2023-06-24T11:36:36;7.03;;;6.30;;
50066;SDS011;35952;52.524;13.340;2023-06-24T11:41:29;7.57;;;6.83;;
50066;SDS011;35952;52.524;13.340;2023-06-24T11:43:57;6.60;;;5.90;;
50066;SDS011;35952;52.524;13.340;2023-06-24T11:46:26;7.33;;;5.70;;
50066;SDS011;35952;52.524;13.340;2023-06-24T11:49:02;7.50;;;6.00;;
50066;SDS011;35952;52.524;13.340;2023-06-24T11:51:31;6.47;;;5.70;;
50066;SDS011;35952;52.524;13.340;2023-06-24T11:54:01;8.70;;;5.70;;
50066;SDS011;35952;52.524;13.340;2023-06-24T11:56:34;7.33;;;6.73;;
50066;SDS011;35952;52.524;13.340;2023-06-24T11:59:03;7.93;;;5.73;;
50066;SDS011;35952;52.524;13.340;2023-06-24T12:01:32;6.50;;;6.00;;
50066;SDS011;35952;52.524;13.340;2023-06-24T12:04:11;8.47;;;5.60;;
50066;SDS011;35952;52.524;13.340;2023-06-24T12:06:40;8.63;;;6.00;;
50066;SDS011;35952;52.524;13.340;2023-06-24T12:09:07;7.53;;;6.80;;
50066;SDS011;35952;52.524;13.340;2023-06-24T12:11:33;6.50;;;5.27;;
50066;SDS011;35952;52.524;13.340;2023-06-24T12:13:58;7.77;;;6.93;;
50066;SDS011;35952;52.524;13.340;2023-06-24T12:16:24;12.67;;;9.53;;
50066;SDS011;35952;52.524;13.340;2023-06-24T12:18:51;7.60;;;5.90;;
50066;SDS011;35952;52.524;13.340;2023-06-24T12:21:17;6.83;;;5.63;;
50066;SDS011;35952;52.524;13.340;2023-06-24T12:23:42;7.60;;;5.10;;
50066;SDS011;35952;52.524;13.340;2023-06-24T12:26:08;6.67;;;6.10;;
50066;SDS011;35952;52.524;13.340;2023-06-24T12:28:33;5.97;;;5.03;;
50066;SDS011;35952;52.524;13.340;2023-06-24T12:30:59;6.40;;;5.10;;
50066;SDS011;35952;52.524;13.340;2023-06-24T12:33:24;6.97;;;6.37;;
50066;SDS011;35952;52.524;13.340;2023-06-24T12:35:50;5.07;;;4.67;;
50066;SDS011;35952;52.524;13.340;2023-06-24T12:38:15;7.33;;;5.97;;
50066;SDS011;35952;52.524;13.340;2023-06-24T12:40:41;5.87;;;5.37;;
50066;SDS011;35952;52.524;13.340;2023-06-24T12:43:07;7.00;;;5.40;;
50066;SDS011;35952;52.524;13.340;2023-06-24T12:45:32;5.93;;;5.37;;
50066;SDS011;35952;52.524;13.340;2023-06-24T12:47:58;6.47;;;5.87;;
50066;SDS011;35952;52.524;13.340;2023-06-24T12:50:24;6.10;;;5.50;;
50066;SDS011;35952;52.524;13.340;2023-06-24T12:52:50;6.10;;;5.50;;
50066;SDS011;35952;52.524;13.340;2023-06-24T12:55:15;6.00;;;5.53;;
50066;SDS011;35952;52.524;13.340;2023-06-24T12:57:41;6.50;;;5.80;;
50066;SDS011;35952;52.524;13.340;2023-06-24T13:00:06;6.40;;;5.87;;
50066;SDS011;35952;52.524;13.340;2023-06-24T13:02:33;6.30;;;5.80;;
50066;SDS011;35952;52.524;13.340;2023-06-24T13:05:00;6.70;;;6.10;;
50066;SDS011;35952;52.524;13.340;2023-06-24T13:07:25;6.03;;;5.43;;
50066;SDS011;35952;52.524;13.340;2023-06-24T13:09:51;6.77;;;6.27;;
50066;SDS011;35952;52.524;13.340;2023-06-24T13:12:17;5.67;;;5.17;;
50066;SDS011;35952;52.524;13.340;2023-06-24T13:14:42;6.57;;;5.97;;
50066;SDS011;35952;52.524;13.340;2023-06-24T13:17:07;7.83;;;6.17;;
50066;SDS011;35952;52.524;13.340;2023-06-24T13:19:33;7.10;;;6.37;;
50066;SDS011;35952;52.524;13.340;2023-06-24T13:21:59;5.77;;;5.27;;
50066;SDS011;35952;52.524;13.340;2023-06-24T13:24:24;6.00;;;5.50;;
50066;SDS011;35952;52.524;13.340;2023-06-24T13:26:53;7.63;;;6.13;;
50066;SDS011;35952;52.524;13.340;2023-06-24T13:29:18;8.27;;;5.80;;
50066;SDS011;35952;52.524;13.340;2023-06-24T13:31:47;8.37;;;6.50;;
50066;SDS011;35952;52.524;13.340;2023-06-24T13:34:12;6.53;;;5.97;;
50066;SDS011;35952;52.524;13.340;2023-06-24T13:36:38;7.20;;;6.50;;
50066;SDS011;35952;52.524;13.340;2023-06-24T13:39:05;5.70;;;5.30;;
50066;SDS011;35952;52.524;13.340;2023-06-24T13:41:31;5.70;;;5.20;;
50066;SDS011;35952;52.524;13.340;2023-06-24T13:43:58;5.80;;;5.30;;
50066;SDS011;35952;52.524;13.340;2023-06-24T13:46:24;7.67;;;5.70;;
50066;SDS011;35952;52.524;13.340;2023-06-24T13:48:50;5.33;;;4.93;;
50066;SDS011;35952;52.524;13.340;2023-06-24T13:51:16;6.33;;;5.17;;
50066;SDS011;35952;52.524;13.340;2023-06-24T13:53:43;5.73;;;5.23;;
50066;SDS011;35952;52.524;13.340;2023-06-24T13:56:08;5.40;;;4.90;;
50066;SDS011;35952;52.524;13.340;2023-06-24T13:58:34;5.10;;;4.60;;
50066;SDS011;35952;52.524;13.340;2023-06-24T14:00:59;5.03;;;4.60;;
50066;SDS011;35952;52.524;13.340;2023-06-24T14:03:25;5.27;;;4.80;;
50066;SDS011;35952;52.524;13.340;2023-06-24T14:05:51;5.77;;;4.40;;
50066;SDS011;35952;52.524;13.340;2023-06-24T14:08:16;5.30;;;4.90;;
50066;SDS011;35952;52.524;13.340;2023-06-24T14:10:42;4.60;;;4.30;;
50066;SDS011;35952;52.524;13.340;2023-06-24T14:13:07;5.40;;;4.90;;
50066;SDS011;35952;52.524;13.340;2023-06-24T14:15:33;5.70;;;5.20;;
50066;SDS011;35952;52.524;13.340;2023-06-24T14:17:59;6.03;;;5.07;;
50066;SDS011;35952;52.524;13.340;2023-06-24T14:20:24;6.70;;;6.10;;
50066;SDS011;35952;52.524;13.340;2023-06-24T14:22:50;6.00;;;5.50;;
50066;SDS011;35952;52.524;13.340;2023-06-24T14:25:16;6.50;;;6.07;;
50066;SDS011;35952;52.524;13.340;2023-06-24T14:27:44;4.97;;;4.50;;
50066;SDS011;35952;52.524;13.340;2023-06-24T14:30:09;6.20;;;5.80;;
50066;SDS011;35952;52.524;13.340;2023-06-24T14:32:35;5.97;;;5.47;;
50066;SDS011;35952;52.524;13.340;2023-06-24T14:35:02;6.83;;;4.93;;